Time;durP1;ratioP1;P1;durP2;ratioP2;P2;SDS_P1;SDS_P2;PMS_P1;PMS_P2;Temp;Humidity;BMP_temperature;BMP_pressure;BME280_temperature;BME280_humidity;BME280_pressure;Samples;Min_cycle;Max_cycle;Signal;HPM_P1;HPM_P2
2021/05/04 00:00:52;;;;;;;9.73;4.23;;;12.10;99.90;;;-143.32;44.42;55566.22;4861813;29;20515;-91
2021/05/04 00:03:20;;;;;;;8.97;5.00;;;12.10;99.90;;;-143.32;43.95;55580.38;4862517;29;20450;-89
2021/05/04 00:05:47;;;;;;;4.60;3.47;;;11.90;99.90;;;-143.32;44.18;55541.97;4862042;29;20480;-90
2021/05/04 00:08:14;;;;;;;6.03;3.47;;;12.10;99.90;;;-143.32;44.25;55546.03;4862000;29;20494;-89
2021/05/04 00:10:40;;;;;;;7.53;3.40;;;12.10;99.90;;;-143.32;44.26;55568.25;4862048;29;20502;-90
2021/05/04 00:13:07;;;;;;;5.87;3.80;;;12.10;99.90;;;-143.32;44.33;55570.28;4861667;29;20926;-89
2021/05/04 00:15:34;;;;;;;7.03;3.57;;;12.10;99.90;;;-143.32;44.26;55556.13;4861788;29;20454;-89
2021/05/04 00:18:01;;;;;;;12.33;3.70;;;12.10;99.90;;;-143.32;44.18;55566.22;4861555;29;20533;-91
2021/05/04 00:20:28;;;;;;;14.70;4.17;;;12.10;99.90;;;-143.32;44.41;55544.00;4861549;29;20803;-90
2021/05/04 00:22:55;;;;;;;11.40;4.20;;;12.10;99.90;;;-143.32;44.40;55554.09;4861796;29;20490;-93
2021/05/04 00:25:22;;;;;;;9.90;4.00;;;12.10;99.90;;;-143.32;44.46;55568.25;4861342;29;20549;-92
2021/05/04 00:27:48;;;;;;;8.63;3.70;;;12.00;99.90;;;-143.32;44.43;55572.28;4861787;29;20559;-91
2021/05/04 00:30:15;;;;;;;7.30;3.60;;;12.10;99.90;;;-143.32;44.68;55556.13;4865161;29;20972;-90
2021/05/04 00:32:42;;;;;;;9.80;3.53;;;12.00;99.90;;;-143.32;44.42;55533.91;4865204;29;20470;-90
2021/05/04 00:35:10;;;;;;;5.57;3.83;;;12.10;99.90;;;-143.32;44.31;55505.59;4865865;29;20848;-91
2021/05/04 00:37:38;;;;;;;8.40;3.60;;;12.00;99.90;;;-143.32;44.45;55558.16;4865358;29;20487;-88
2021/05/04 00:40:07;;;;;;;5.50;3.30;;;12.10;99.90;;;-143.32;44.18;55544.00;4865096;29;20457;-91
2021/05/04 00:42:34;;;;;;;4.00;2.90;;;12.10;99.90;;;-143.32;44.26;55550.06;4865259;29;20446;-87
2021/05/04 00:45:00;;;;;;;4.17;2.93;;;12.10;99.90;;;-143.32;44.20;55578.34;4865193;29;20493;-88
2021/05/04 00:47:27;;;;;;;8.67;3.57;;;12.10;99.90;;;-143.32;44.34;55537.94;4865283;29;20457;-89
2021/05/04 00:49:54;;;;;;;5.93;3.33;;;12.10;99.90;;;-143.32;44.14;55550.06;4865178;29;20462;-89
2021/05/04 00:52:20;;;;;;;6.90;3.07;;;12.10;99.90;;;-143.32;43.91;55544.00;4864804;29;20443;-90
2021/05/04 00:54:49;;;;;;;5.90;2.80;;;12.20;99.90;;;-143.32;43.82;55560.16;4864527;29;20494;-90
2021/05/04 00:57:16;;;;;;;5.23;2.93;;;12.20;99.90;;;-143.32;44.03;55558.16;4864966;29;20461;-91
2021/05/04 00:59:45;;;;;;;6.53;3.67;;;12.20;99.90;;;-143.32;44.04;55529.84;4864766;29;20486;-92
2021/05/04 01:02:12;;;;;;;9.40;4.53;;;12.20;99.90;;;-143.32;44.18;55548.03;4864506;29;20462;-89
2021/05/04 01:04:40;;;;;;;6.17;3.30;;;12.20;99.90;;;-143.32;44.09;55539.97;4864351;29;20533;-87
2021/05/04 01:07:07;;;;;;;12.77;3.40;;;12.20;99.90;;;-143.32;43.72;55580.38;4864803;29;20453;-89
2021/05/04 01:09:33;;;;;;;5.80;2.80;;;12.20;99.90;;;-143.32;43.69;55527.84;4864734;29;20457;-89
2021/05/04 01:12:01;;;;;;;5.10;2.73;;;12.20;99.90;;;-143.32;43.62;55515.72;4864709;29;20453;-89
2021/05/04 01:14:28;;;;;;;9.63;3.00;;;12.20;99.90;;;-143.32;43.96;55537.94;4864251;29;20462;-87
2021/05/04 01:16:55;;;;;;;7.10;2.70;;;12.20;99.90;;;-143.32;43.69;55539.97;4864121;29;20450;-91
2021/05/04 01:19:23;;;;;;;5.93;2.43;;;12.20;99.90;;;-143.32;43.77;55580.38;4864666;29;20443;-89
2021/05/04 01:21:51;;;;;;;3.53;2.57;;;12.20;99.90;;;-143.32;43.61;55529.84;4864201;29;20454;-90
2021/05/04 01:24:19;;;;;;;6.93;2.70;;;12.20;99.90;;;-143.32;43.81;55546.03;4865418;29;20890;-89
2021/05/04 01:26:47;;;;;;;3.33;2.97;;;12.20;99.90;;;-143.32;44.07;55546.03;4864373;29;20461;-90
2021/05/04 01:29:15;;;;;;;9.40;2.77;;;12.20;99.90;;;-143.32;44.04;55566.22;4863974;29;20474;-91
2021/05/04 01:31:43;;;;;;;2.57;2.37;;;12.20;99.90;;;-143.32;44.06;55554.09;4864053;29;20948;-89
2021/05/04 01:34:11;;;;;;;7.33;2.70;;;12.20;99.90;;;-143.32;44.08;55537.94;4864330;29;20457;-87
2021/05/04 01:36:39;;;;;;;7.23;2.73;;;12.20;99.90;;;-143.32;44.52;55574.31;4865146;29;20510;-89
2021/05/04 01:39:08;;;;;;;2.73;2.20;;;12.20;99.90;;;-143.32;44.38;55578.34;4864082;29;20936;-90
2021/05/04 01:41:36;;;;;;;9.90;2.00;;;12.20;99.90;;;-143.32;44.82;55560.16;4864241;29;20536;-90
2021/05/04 01:44:04;;;;;;;5.47;3.53;;;12.20;99.90;;;-143.32;44.93;55560.16;4864574;29;20498;-91
2021/05/04 01:46:32;;;;;;;2.47;2.27;;;12.20;99.90;;;-143.32;44.96;55539.97;4863806;29;20478;-90
2021/05/04 01:48:59;;;;;;;3.23;2.20;;;12.20;99.90;;;-143.32;45.21;55566.22;4863956;29;20546;-90
2021/05/04 01:51:28;;;;;;;7.90;2.23;;;12.10;99.90;;;-143.32;44.09;55529.84;4863926;29;20566;-89
2021/05/04 01:53:56;;;;;;;19.73;2.53;;;12.20;99.90;;;-143.32;44.84;55533.91;4863873;29;21016;-89
2021/05/04 01:56:24;;;;;;;5.00;2.00;;;12.20;99.90;;;-143.32;46.31;55525.81;4864149;29;20442;-90
2021/05/04 01:58:50;;;;;;;7.40;2.40;;;12.40;99.90;;;-143.32;45.70;55537.94;4863868;29;21016;-90
2021/05/04 02:01:17;;;;;;;65.03;4.40;;;12.20;99.90;;;-143.32;45.73;55531.88;4864517;29;20930;-89
2021/05/04 02:03:47;;;;;;;34.93;3.47;;;12.20;99.90;;;-143.32;44.77;55548.03;4864318;29;20499;-90
2021/05/04 02:06:14;;;;;;;21.47;2.77;;;12.20;99.90;;;-143.32;49.29;55519.75;4864272;29;20500;-91
2021/05/04 02:08:41;;;;;;;12.07;2.27;;;12.10;99.90;;;-143.32;50.60;55531.88;4864835;29;20500;-90
2021/05/04 02:11:07;;;;;;;10.70;2.57;;;11.90;99.90;;;-143.32;48.97;55541.97;4863757;29;20549;-89
2021/05/04 02:13:35;;;;;;;11.43;2.17;;;11.80;99.90;;;-143.32;50.82;55529.84;4863687;29;20459;-89
2021/05/04 02:16:02;;;;;;;12.20;2.27;;;11.80;99.90;;;-143.32;52.18;55531.88;4863985;29;20858;-90
2021/05/04 02:18:28;;;;;;;19.33;2.10;;;11.80;99.90;;;-143.32;52.73;55515.72;4863623;29;20474;-90
2021/05/04 02:21:00;;;;;;;20.27;2.27;;;11.70;99.90;;;-143.32;57.09;55507.63;4863606;29;20454;-88
2021/05/04 02:23:27;;;;;;;6.03;2.00;;;11.60;99.90;;;-143.32;61.50;55426.78;4863662;29;20533;-88
2021/05/04 02:25:54;;;;;;;11.10;2.27;;;11.40;99.90;;;-143.32;65.40;55447.00;4863569;29;21008;-89
2021/05/04 02:28:20;;;;;;;14.27;3.10;;;11.20;99.90;;;-143.32;70.25;55402.53;4863533;29;20497;-88
2021/05/04 02:30:48;;;;;;;5.47;2.40;;;11.00;1.00;;;-143.32;72.88;55438.91;4863908;29;20485;-89
2021/05/04 02:33:16;;;;;;;5.93;2.20;;;10.80;1.00;;;-143.32;76.38;55374.25;4863619;29;20454;-89
2021/05/04 02:35:43;;;;;;;9.50;2.17;;;10.50;1.00;;;-143.32;79.35;55370.19;4863472;29;20451;-89
2021/05/04 02:38:10;;;;;;;5.30;2.10;;;10.30;1.00;;;-143.32;82.11;55374.25;4863197;29;20489;-91
2021/05/04 02:40:36;;;;;;;3.90;2.30;;;10.20;99.90;;;-143.32;85.42;55307.56;4863522;29;20462;-89
2021/05/04 02:43:03;;;;;;;5.40;2.00;;;10.00;99.90;;;-143.32;87.34;55315.63;4863318;29;20465;-88
2021/05/04 02:45:30;;;;;;;4.63;2.10;;;9.80;1.00;;;-143.32;88.90;55281.28;4863785;29;20523;-89
2021/05/04 02:47:57;;;;;;;2.83;2.20;;;9.60;1.00;;;-143.32;89.68;55317.66;4863254;29;20469;-88
2021/05/04 02:50:24;;;;;;;10.10;2.60;;;9.60;1.00;;;-143.32;91.18;55261.06;4862836;29;20461;-89
2021/05/04 02:52:50;;;;;;;4.03;2.10;;;9.20;99.90;;;-143.32;93.08;55273.19;4862803;29;20519;-88
2021/05/04 02:55:17;;;;;;;4.37;2.37;;;9.20;1.00;;;-143.32;94.59;55259.06;4862809;29;20514;-88
2021/05/04 02:57:44;;;;;;;7.63;2.23;;;9.00;99.90;;;-143.32;96.02;55253.00;4862915;29;20953;-88
2021/05/04 03:00:12;;;;;;;3.50;2.43;;;8.90;1.00;;;-143.32;96.49;55220.66;4862950;29;20514;-89
2021/05/04 03:02:39;;;;;;;9.57;3.10;;;8.70;1.00;;;-143.32;96.32;55248.94;4861577;29;20458;-87
2021/05/04 03:05:10;;;;;;;2.93;2.40;;;8.70;1.00;;;-143.32;96.06;55242.88;4863542;29;20498;-90
2021/05/04 03:07:36;;;;;;;5.30;2.30;;;8.70;99.90;;;-143.32;95.11;55257.03;4862937;29;20941;-89
2021/05/04 03:10:07;;;;;;;3.77;2.10;;;8.70;1.00;;;-143.32;95.38;55224.69;4863196;29;20454;-87
2021/05/04 03:12:36;;;;;;;5.80;2.23;;;8.70;99.90;;;-143.32;96.67;55214.59;4862550;29;20520;-88
2021/05/04 03:15:09;;;;;;;4.73;2.30;;;8.70;1.00;;;-143.32;96.64;55242.88;4863061;29;20787;-89
2021/05/04 03:17:38;;;;;;;3.37;2.30;;;8.60;99.90;;;-143.32;97.33;55192.38;4863119;29;20812;-90
2021/05/04 03:20:10;;;;;;;7.27;2.40;;;8.50;1.00;;;-143.32;97.99;55184.28;4862775;29;20497;-87
2021/05/04 03:22:37;;;;;;;8.30;2.30;;;8.50;99.90;;;-143.32;97.35;55240.88;4862420;29;20431;-91
2021/05/04 03:25:04;;;;;;;3.90;2.57;;;8.30;1.00;;;-143.32;98.33;55220.66;4862393;29;20494;-88
2021/05/04 03:27:31;;;;;;;11.30;2.63;;;8.40;99.90;;;-143.32;98.16;55180.25;4862824;29;20454;-88
2021/05/04 03:29:58;;;;;;;8.27;2.40;;;8.40;1.00;;;-143.32;98.44;55182.25;4862672;29;20450;-86
2021/05/04 03:32:25;;;;;;;7.43;2.20;;;8.40;96.70;;;-143.32;99.83;55174.19;4862054;29;20458;-86
2021/05/04 03:34:51;;;;;;;6.53;2.27;;;8.40;99.90;;;-143.32;100.00;55158.00;4861865;29;20514;-87
2021/05/04 03:37:20;;;;;;;3.40;2.57;;;8.30;99.90;;;-143.32;100.00;55129.72;4861975;29;20458;-89
2021/05/04 03:39:47;;;;;;;5.00;2.47;;;8.20;99.90;;;-143.32;100.00;55111.53;4862200;29;20790;-89
2021/05/04 03:42:13;;;;;;;3.90;3.00;;;8.10;1.00;;;-143.32;100.00;55109.50;4861883;29;20462;-88
2021/05/04 03:44:40;;;;;;;4.20;2.80;;;8.00;99.90;;;-143.32;100.00;55117.59;4862113;29;20529;-87
2021/05/04 03:47:07;;;;;;;3.00;2.70;;;7.90;1.00;;;-143.32;100.00;55050.91;4861760;29;20991;-87
2021/05/04 03:49:33;;;;;;;5.60;3.00;;;7.90;1.00;;;-143.32;100.00;55046.88;4861889;29;20482;-86
2021/05/04 03:52:00;;;;;;;4.60;2.67;;;7.90;1.00;;;-143.32;100.00;55059.00;4861814;29;20953;-89
2021/05/04 03:54:28;;;;;;;5.60;3.00;;;7.70;99.90;;;-143.32;100.00;55024.66;4861955;29;20461;-86
2021/05/04 03:56:57;;;;;;;8.13;2.87;;;7.80;99.90;;;-143.32;100.00;55008.47;4862004;29;20496;-88
2021/05/04 03:59:24;;;;;;;4.53;2.77;;;7.80;99.90;;;-143.32;100.00;54996.34;4861889;29;20540;-89
2021/05/04 04:01:56;;;;;;;5.50;3.47;;;7.80;1.00;;;-143.32;100.00;55004.44;4861892;29;20477;-88
2021/05/04 04:04:23;;;;;;;11.47;3.50;;;7.80;99.90;;;-143.32;100.00;54990.28;4861216;29;20466;-88
2021/05/04 04:06:50;;;;;;;4.93;2.80;;;7.80;15.90;;;-143.32;100.00;54990.28;4861836;29;20461;-87
2021/05/04 04:09:16;;;;;;;5.47;4.03;;;7.80;1.00;;;-143.32;100.00;55010.50;4862372;29;20468;-89
2021/05/04 04:11:44;;;;;;;3.90;2.83;;;7.90;99.90;;;-143.32;100.00;54988.28;4861854;29;20465;-88
2021/05/04 04:14:10;;;;;;;4.30;2.70;;;7.80;1.00;;;-143.32;100.00;55020.59;4861925;29;20449;-89
2021/05/04 04:16:37;;;;;;;8.73;5.10;;;7.90;92.80;;;-143.32;100.00;55008.47;4861654;29;20458;-91
2021/05/04 04:19:04;;;;;;;4.50;2.70;;;7.90;1.00;;;-143.32;100.00;55002.41;4861716;29;20465;-90
2021/05/04 04:21:30;;;;;;;4.23;3.20;;;8.00;1.00;;;-143.32;100.00;55040.81;4861678;29;20457;-90
2021/05/04 04:23:57;;;;;;;3.87;2.90;;;8.00;99.90;;;-143.32;100.00;55012.53;4861927;29;20461;-91
2021/05/04 04:26:24;;;;;;;6.43;2.93;;;8.00;99.90;;;-143.32;100.00;55012.53;4861856;29;20919;-88
2021/05/04 04:28:52;;;;;;;10.33;3.10;;;8.10;1.00;;;-143.32;100.00;55032.72;4861799;29;20972;-90
2021/05/04 04:31:19;;;;;;;6.10;2.90;;;8.10;99.90;;;-143.32;99.71;55030.72;4861769;29;20458;-87
2021/05/04 04:33:46;;;;;;;4.70;3.23;;;8.10;1.00;;;-143.32;99.90;55054.94;4861744;29;20459;-89
2021/05/04 04:36:12;;;;;;;4.30;3.13;;;8.10;92.80;;;-143.32;99.55;55014.53;4861716;29;20510;-90
2021/05/04 04:38:39;;;;;;;3.77;2.70;;;8.10;1.00;;;-143.32;99.44;55026.66;4861593;29;20457;-91
2021/05/04 04:41:05;;;;;;;3.50;2.67;;;8.20;1.00;;;-143.32;99.10;55026.66;4861714;29;20446;-91
2021/05/04 04:43:32;;;;;;;10.73;3.23;;;8.20;99.90;;;-143.32;98.39;55077.19;4861722;29;20477;-90
2021/05/04 04:46:00;;;;;;;3.50;2.30;;;8.40;4.10;;;-143.32;98.24;55089.31;4861657;29;20546;-89
2021/05/04 04:48:26;;;;;;;4.30;2.47;;;8.30;1.00;;;-143.32;98.05;55048.88;4861472;29;20469;-89
2021/05/04 04:50:53;;;;;;;5.10;2.73;;;8.30;1.00;;;-143.32;97.86;55077.19;4861785;29;20458;-91
2021/05/04 04:53:19;;;;;;;3.60;2.70;;;8.40;1.00;;;-143.32;97.52;55059.00;4861293;29;20454;-91
2021/05/04 04:55:46;;;;;;;3.80;2.90;;;8.40;1.00;;;-143.32;96.80;55089.31;4862604;29;20795;-90
2021/05/04 04:58:13;;;;;;;2.60;2.40;;;8.40;99.90;;;-143.32;96.62;55071.13;4861655;29;20454;-89
2021/05/04 05:00:39;;;;;;;6.23;2.30;;;8.60;99.90;;;-143.32;96.70;55069.09;4862361;29;20581;-89
2021/05/04 05:03:07;;;;;;;7.47;2.53;;;8.60;99.90;;;-143.32;95.74;55077.19;4862849;29;20797;-89
2021/05/04 05:05:34;;;;;;;8.80;2.50;;;8.60;1.00;;;-143.32;95.67;55111.53;4862097;29;20493;-88
2021/05/04 05:08:00;;;;;;;5.20;1.90;;;8.60;1.00;;;-143.32;95.18;55091.31;4861589;29;20490;-89
2021/05/04 05:10:27;;;;;;;2.53;2.23;;;8.80;1.00;;;-143.32;95.33;55097.38;4861561;29;20868;-91
2021/05/04 05:12:54;;;;;;;3.87;2.80;;;8.70;1.00;;;-143.32;95.08;55109.50;4861386;29;20478;-89
2021/05/04 05:15:43;;;;;;;3.67;2.50;;;8.60;1.00;;;-143.32;94.99;55079.19;4865255;29;20506;-91
2021/05/04 05:18:28;;;;;;;3.20;2.27;;;8.80;1.00;;;-143.32;95.07;55105.47;4863727;29;20800;-91
2021/05/04 05:25:41;;;;;;;10.90;1.97;;;8.80;99.90;;;-143.32;94.82;55107.50;4815114;29;20488;-90
2021/05/04 05:31:53;;;;;;;9.87;2.13;;;8.90;99.90;;;-143.32;93.89;55089.31;4869138;29;20455;-90
2021/05/04 05:34:30;;;;;;;4.50;2.43;;;9.00;99.90;;;-143.32;93.33;55099.41;4869918;29;20477;-91
2021/05/04 05:36:59;;;;;;;5.00;2.43;;;9.00;99.90;;;-143.32;94.04;55103.44;4878257;29;20450;-91
2021/05/04 05:39:50;;;;;;;2.30;2.07;;;9.00;99.90;;;-143.32;93.76;55099.41;4880516;29;20453;-92
2021/05/04 05:42:20;;;;;;;3.63;2.13;;;9.10;99.90;;;-143.32;94.87;55093.34;4880397;29;20450;-92
2021/05/04 05:44:49;;;;;;;5.60;2.53;;;9.00;99.90;;;-143.32;97.49;55071.13;4886713;29;20462;-91
2021/05/04 05:47:20;;;;;;;8.80;4.30;;;8.90;99.90;;;-143.32;98.98;55030.72;4887867;29;20433;-92
2021/05/04 05:49:48;;;;;;;2.77;2.53;;;8.80;99.90;;;-143.32;100.00;55056.97;4887401;29;20591;-92
2021/05/04 05:52:23;;;;;;;2.90;2.40;;;8.80;1.00;;;-143.32;100.00;55004.44;4880748;29;20454;-92
2021/05/04 05:54:55;;;;;;;3.30;2.73;;;8.70;99.90;;;-143.32;100.00;54992.31;4873400;29;20462;-93
2021/05/04 05:57:22;;;;;;;6.03;2.60;;;8.60;99.90;;;-143.32;100.00;55026.66;4871871;29;20423;-92
2021/05/04 05:59:49;;;;;;;2.83;2.53;;;8.40;99.90;;;-143.32;100.00;54992.31;4873864;29;20871;-89
2021/05/04 06:02:16;;;;;;;7.03;2.80;;;8.40;58.60;;;-143.32;100.00;54978.16;4868062;29;20501;-92
2021/05/04 06:04:43;;;;;;;8.87;3.07;;;8.30;99.90;;;-143.32;100.00;54943.81;4870678;29;20505;-92
2021/05/04 06:07:11;;;;;;;4.60;2.70;;;8.30;13.10;;;-143.32;100.00;54968.06;4869083;29;20442;-89
2021/05/04 06:09:39;;;;;;;7.07;2.90;;;8.30;99.90;;;-143.32;100.00;54974.13;4870375;29;20521;-91
2021/05/04 06:12:07;;;;;;;4.43;2.93;;;8.40;1.00;;;-143.32;100.00;54970.09;4868600;29;20473;-91
2021/05/04 06:14:34;;;;;;;4.47;2.60;;;8.40;99.90;;;-143.32;100.00;54988.28;4868704;29;20842;-88
2021/05/04 06:17:01;;;;;;;5.23;2.80;;;8.40;1.00;;;-143.32;100.00;54951.91;4867504;29;20779;-89
2021/05/04 06:19:28;;;;;;;3.03;2.73;;;8.40;1.00;;;-143.32;100.00;54978.16;4866143;29;20466;-90
2021/05/04 06:21:54;;;;;;;4.10;2.70;;;8.40;99.90;;;-143.32;100.00;54947.84;4867382;29;20459;-87
2021/05/04 06:24:24;;;;;;;3.83;2.67;;;8.50;99.90;;;-143.32;100.00;54966.03;4864058;29;20498;-88
2021/05/04 06:26:52;;;;;;;4.03;2.57;;;8.50;1.00;;;-143.32;100.00;54974.13;4864363;29;20461;-89
2021/05/04 06:29:18;;;;;;;3.00;2.43;;;8.60;99.90;;;-143.32;100.00;54980.19;4863930;29;20462;-86
2021/05/04 06:31:48;;;;;;;5.63;2.67;;;8.70;99.90;;;-143.32;100.00;54978.16;4863434;29;20435;-87
2021/05/04 06:37:56;;;;;;;12.13;2.70;;;9.10;1.00;;;-143.32;96.79;55000.41;4863119;29;20433;-88
2021/05/04 06:40:23;;;;;;;3.53;2.20;;;9.40;99.90;;;-143.32;95.45;55012.53;4862953;29;20461;-88
2021/05/04 06:42:50;;;;;;;5.33;2.37;;;9.50;1.00;;;-143.32;95.13;55010.50;4862484;29;20473;-87
2021/05/04 06:45:17;;;;;;;6.13;2.60;;;9.70;1.00;;;-143.32;94.77;54966.03;4862700;29;20498;-86
2021/05/04 06:47:43;;;;;;;4.30;2.37;;;9.90;99.90;;;-143.32;93.77;54976.16;4862708;29;20486;-87
2021/05/04 06:50:16;;;;;;;3.10;2.60;;;10.00;99.90;;;-143.32;92.72;54990.28;4863141;29;20806;-88
2021/05/04 06:52:43;;;;;;;7.33;2.20;;;10.20;99.90;;;-143.32;91.74;54980.19;4862911;29;20442;-87
2021/05/04 06:55:11;;;;;;;5.20;2.57;;;10.30;1.00;;;-143.32;91.68;54955.94;4862410;29;20833;-88
2021/05/04 06:57:43;;;;;;;3.57;2.40;;;10.40;1.00;;;-143.32;91.17;54998.38;4863766;29;20454;-90
2021/05/04 07:00:13;;;;;;;6.27;2.60;;;10.50;1.00;;;-143.32;91.55;54992.31;4863697;29;20446;-91
2021/05/04 07:02:45;;;;;;;6.87;2.60;;;10.60;1.00;;;-143.32;91.52;54998.38;4864125;29;20442;-88
2021/05/04 07:05:12;;;;;;;8.67;2.77;;;10.70;1.00;;;-143.32;91.11;54968.06;4862598;29;20513;-88
2021/05/04 07:07:40;;;;;;;3.83;2.10;;;10.70;1.00;;;-143.32;92.45;54970.09;4862890;29;20461;-90
2021/05/04 07:10:09;;;;;;;3.10;2.23;;;10.60;46.10;;;-143.32;92.66;54978.16;4863181;29;20458;-88
2021/05/04 07:12:35;;;;;;;5.40;2.00;;;10.40;99.90;;;-143.32;93.04;54996.34;4863128;29;20480;-89
2021/05/04 07:15:04;;;;;;;3.83;2.03;;;10.30;99.90;;;-143.32;93.61;54994.34;4862358;29;20462;-90
2021/05/04 07:17:35;;;;;;;5.67;2.97;;;10.30;99.90;;;-143.32;93.54;54984.22;4863370;29;20886;-88
2021/05/04 07:20:02;;;;;;;6.13;2.67;;;10.30;99.90;;;-143.32;93.82;55020.59;4862362;29;20438;-88
2021/05/04 07:22:29;;;;;;;3.90;2.40;;;10.20;99.90;;;-143.32;94.00;54980.19;4862925;29;20469;-88
2021/05/04 07:24:56;;;;;;;3.20;2.13;;;10.20;99.90;;;-143.32;95.21;54986.25;4862974;29;20565;-89
2021/05/04 07:27:23;;;;;;;4.00;2.10;;;10.00;1.00;;;-143.32;95.30;54990.28;4862199;29;20458;-90
2021/05/04 07:29:50;;;;;;;2.67;2.27;;;10.00;1.00;;;-143.32;95.98;54978.16;4861804;29;20458;-89
2021/05/04 07:32:18;;;;;;;4.10;2.20;;;10.10;1.00;;;-143.32;96.11;54990.28;4862719;29;20466;-88
2021/05/04 07:34:46;;;;;;;6.27;2.10;;;9.90;1.00;;;-143.32;96.51;54982.22;4862341;29;20458;-88
2021/05/04 07:37:13;;;;;;;2.07;1.97;;;9.80;99.90;;;-143.32;97.31;54988.28;4861798;29;20812;-89
2021/05/04 07:39:41;;;;;;;4.80;2.40;;;9.90;99.90;;;-143.32;96.77;54994.34;4862218;29;20453;-90
2021/05/04 07:42:14;;;;;;;7.13;2.30;;;9.90;99.90;;;-143.32;97.08;54986.25;4862817;29;20533;-90
2021/05/04 07:44:41;;;;;;;2.40;2.17;;;9.90;99.90;;;-143.32;97.14;55002.41;4863317;29;20486;-88
2021/05/04 07:47:08;;;;;;;2.80;2.20;;;9.70;99.90;;;-143.32;97.81;54990.28;4861771;29;20533;-88
2021/05/04 07:49:41;;;;;;;4.43;2.10;;;9.80;99.90;;;-143.32;97.58;54962.00;4861786;29;20469;-90
2021/05/04 07:52:08;;;;;;;3.03;2.30;;;9.90;99.90;;;-143.32;97.14;54964.03;4862296;29;20457;-91
2021/05/04 07:54:42;;;;;;;2.50;2.10;;;10.00;99.90;;;-143.32;96.35;54941.78;4861889;29;20960;-88
2021/05/04 07:57:10;;;;;;;7.37;2.27;;;10.20;70.80;;;-143.32;97.64;54923.59;4861445;29;20480;-87
2021/05/04 07:59:38;;;;;;;6.33;2.17;;;10.10;99.90;;;-143.32;96.69;54968.06;4862001;29;20454;-90
2021/05/04 08:02:05;;;;;;;3.40;2.30;;;10.20;17.20;;;-143.32;97.10;54931.69;4861156;29;20960;-88
2021/05/04 08:04:32;;;;;;;4.17;2.20;;;10.20;99.90;;;-143.32;96.25;54957.97;4862478;29;20912;-88
2021/05/04 08:11:46;;;;;;;3.60;2.03;;;10.30;1.00;;;-143.32;95.66;54953.91;4804895;29;20533;-91
2021/05/04 08:14:37;;;;;;;3.07;2.10;;;10.20;1.00;;;-143.32;96.48;54970.09;4836481;29;20993;-89
2021/05/04 08:17:12;;;;;;;7.73;2.03;;;10.30;7.40;;;-143.32;97.97;54949.88;4861340;29;20545;-88
2021/05/04 08:19:53;;;;;;;2.33;2.13;;;10.30;1.00;;;-143.32;99.88;54925.63;4860780;29;20466;-88
2021/05/04 08:22:48;;;;;;;4.00;2.40;;;10.10;1.00;;;-143.32;100.00;54899.38;4860986;29;20997;-91
2021/05/04 08:33:44;;;;;;;6.83;4.07;;;9.90;7.40;;;-143.32;100.00;54881.19;4822727;29;20444;-89
2021/05/04 08:40:01;;;;;;;3.77;2.83;;;9.70;1.00;;;-143.32;100.00;54921.59;4847559;29;20455;-89
2021/05/04 09:00:56;;;;;;;3.50;2.27;;;9.90;49.70;;;-143.32;100.00;54881.19;4737104;30;20479;-86
2021/05/04 09:03:32;;;;;;;7.60;3.30;;;9.90;99.90;;;-143.32;100.00;54858.94;4738727;30;21002;-90
2021/05/04 09:06:02;;;;;;;4.50;2.90;;;9.90;99.90;;;-143.32;100.00;54883.19;4805031;29;20501;-89
2021/05/04 09:08:39;;;;;;;8.07;2.80;;;9.80;1.00;;;-143.32;100.00;54913.50;4864767;29;20514;-90
2021/05/04 09:11:45;;;;;;;6.87;2.77;;;9.80;99.90;;;-143.32;100.00;54860.97;4864730;29;20556;-90
2021/05/04 09:14:33;;;;;;;6.80;3.13;;;9.80;1.00;;;-143.32;100.00;54856.94;4868340;29;20454;-92
2021/05/04 09:17:10;;;;;;;6.30;3.03;;;9.80;99.90;;;-143.32;100.00;54863.00;4867479;29;20932;-91
2021/05/04 09:22:34;;;;;;;24.63;10.90;;;10.10;99.90;;;-143.32;100.00;54804.41;4866444;29;20458;-92
2021/05/04 09:28:48;;;;;;;38.10;19.43;;;11.20;99.90;;;-143.32;95.77;54840.75;4867565;29;20421;-91
2021/05/04 09:31:22;;;;;;;7.83;3.33;;;11.80;1.00;;;-143.32;94.53;54824.59;4866470;29;20427;-93
2021/05/04 09:33:54;;;;;;;10.07;2.87;;;11.90;99.90;;;-143.32;94.50;54842.78;4869277;29;20447;-93
2021/05/04 09:47:30;;;;;;;13.73;2.43;;;11.50;1.00;;;-143.32;94.30;54860.97;4815369;29;20432;-92
2021/05/04 09:54:21;;;;;;;6.83;2.27;;;11.70;99.90;;;-143.32;94.34;54844.81;4816530;29;20413;-90
2021/05/04 09:57:46;;;;;;;7.30;2.50;;;11.80;99.90;;;-143.32;93.09;54848.84;4824964;29;20450;-91
2021/05/04 10:11:24;;;;;;;6.13;2.33;;;12.20;1.00;;;-143.32;89.19;54858.94;4787188;30;20455;-92
2021/05/04 10:14:32;;;;;;;9.80;2.20;;;12.20;99.90;;;-143.32;87.77;54909.47;4824450;29;20444;-92
2021/05/04 10:17:21;;;;;;;11.17;2.97;;;12.10;99.90;;;-143.32;88.83;54923.59;4862805;29;20530;-92
2021/05/04 10:19:58;;;;;;;9.20;3.10;;;12.00;99.90;;;-143.32;89.32;54897.34;4863331;29;20454;-92
2021/05/04 10:48:49;;;;;;;;;;;;;;;;;;;;;
2021/05/04 10:55:34;;;;;;;12.50;2.87;;;11.70;99.90;;;-143.32;93.38;54860.97;4674339;30;20484;-92
2021/05/04 10:58:23;;;;;;;10.77;2.83;;;11.80;99.90;;;-143.32;91.61;54860.97;4807888;29;20538;-93
2021/05/04 11:01:03;;;;;;;10.83;2.53;;;12.10;1.00;;;-143.32;90.73;54844.81;4825287;29;20486;-92
2021/05/04 11:03:53;;;;;;;7.00;2.30;;;12.30;1.00;;;-143.32;85.18;54901.38;4846410;29;20496;-92
2021/05/04 11:07:09;;;;;;;13.63;2.28;;;12.60;99.90;;;-143.32;82.72;54901.38;4540647;29;9631942;-92
2021/05/04 11:09:39;;;;;;;9.30;2.30;;;12.80;99.90;;;-143.32;85.99;54838.75;4865085;29;20198;-93
2021/05/04 11:12:07;;;;;;;10.57;2.73;;;13.00;99.90;;;-143.32;83.26;54873.09;4867728;29;20457;-94
2021/05/04 11:14:36;;;;;;;9.07;2.50;;;13.20;31.30;;;-143.32;79.71;54937.75;4866863;29;20818;-92
2021/05/04 11:17:22;;;;;;;7.23;2.40;;;13.30;1.00;;;-143.32;79.90;54929.66;4864574;29;20446;-91
2021/05/04 11:40:03;;;;;;;;;;;;;;;;;;;;;
2021/05/04 12:05:41;;;;;;;19.17;3.03;;;12.30;1.00;;;-143.32;75.37;55026.66;4678722;30;20477;-90
2021/05/04 12:08:44;;;;;;;8.97;2.33;;;12.60;1.00;;;-143.32;74.51;55040.81;4734266;30;20464;-89
2021/05/04 12:11:32;;;;;;;9.43;2.53;;;12.90;1.00;;;-143.32;72.00;55083.25;4813339;29;20481;-92
2021/05/04 12:14:20;;;;;;;19.87;2.83;;;13.20;99.90;;;-143.32;71.62;55052.94;4815935;29;20482;-93
2021/05/04 13:34:48;;;;;;;11.97;1.93;;;13.00;99.90;;;-143.32;62.98;55212.56;5138306;23;20504;-94
2021/05/04 13:53:09;;;;;;;10.70;3.30;;;11.90;99.90;;;-143.32;85.00;55024.66;5444261;23;20528;-91
2021/05/04 14:26:33;;;;;;;8.57;3.07;;;12.00;16.60;;;-143.32;85.26;55018.59;4885989;29;20468;-92
2021/05/04 14:29:00;;;;;;;8.23;3.30;;;11.90;99.90;;;-143.32;87.12;55040.81;4885475;29;20932;-94
2021/05/04 14:35:57;;;;;;;6.80;2.10;;;11.70;99.90;;;-143.32;89.40;55002.41;4886396;29;20453;-92
2021/05/04 14:38:30;;;;;;;7.70;2.43;;;11.40;1.00;;;-143.32;89.89;55048.88;4888965;29;20449;-92
2021/05/04 15:04:39;;;;;;;10.37;2.60;;;11.30;75.60;;;-143.32;82.45;55107.50;5442632;23;20504;-91
2021/05/04 15:07:08;;;;;;;10.33;2.43;;;11.40;34.20;;;-143.32;81.28;55123.66;4901787;29;20440;-91
2021/05/04 15:09:39;;;;;;;9.00;2.60;;;11.40;1.00;;;-143.32;82.54;55067.06;4901732;29;20455;-93
2021/05/04 15:12:15;;;;;;;5.63;2.00;;;11.50;50.30;;;-143.32;78.99;55121.63;4901447;29;20421;-92
2021/05/04 15:14:47;;;;;;;9.23;1.93;;;11.50;1.00;;;-143.32;78.14;55141.84;4902432;29;20444;-92
2021/05/04 15:17:19;;;;;;;7.57;2.13;;;11.60;1.00;;;-143.32;78.32;55141.84;4900992;29;20504;-92
2021/05/04 15:22:31;;;;;;;12.03;3.40;;;11.70;1.00;;;-143.32;77.95;55109.50;4902281;29;20415;-91
2021/05/04 15:24:57;;;;;;;8.67;2.37;;;11.90;1.00;;;-143.32;78.50;55073.13;4900081;29;20480;-92
2021/05/04 15:27:25;;;;;;;9.33;2.20;;;12.00;1.00;;;-143.32;76.16;55115.56;4901270;29;20464;-92
2021/05/04 15:29:55;;;;;;;2.87;1.50;;;12.10;1.00;;;-143.32;74.93;55119.63;4900363;29;20531;-92
2021/05/04 15:41:25;;;;;;;6.00;1.87;;;12.00;99.90;;;-143.32;71.86;55198.44;4936537;23;20847;-89